sensor_id;sensor_type;location;lat;lon;timestamp;pressure;altitude;pressure_sealevel;temperature
8533;BMP280;4304;53.876;10.662;2023-01-16T00:00:35;110006.84;;;-139.81
8533;BMP280;4304;53.876;10.662;2023-01-16T00:03:01;110037.19;;;-139.81
8533;BMP280;4304;53.876;10.662;2023-01-16T00:05:26;110075.66;;;-139.81
8533;BMP280;4304;53.876;10.662;2023-01-16T00:07:51;110051.38;;;-139.81
8533;BMP280;4304;53.876;10.662;2023-01-16T00:10:17;110031.13;;;-139.81
8533;BMP280;4304;53.876;10.662;2023-01-16T00:12:42;110047.31;;;-139.81
8533;BMP280;4304;53.876;10.662;2023-01-16T00:15:07;109944.09;;;-139.81
8533;BMP280;4304;53.876;10.662;2023-01-16T00:17:32;109988.63;;;-139.81
8533;BMP280;4304;53.876;10.662;2023-01-16T00:19:58;109927.88;;;-139.81
8533;BMP280;4304;53.876;10.662;2023-01-16T00:22:23;109956.22;;;-139.81
8533;BMP280;4304;53.876;10.662;2023-01-16T00:24:48;109974.44;;;-139.81
8533;BMP280;4304;53.876;10.662;2023-01-16T00:27:14;110029.09;;;-139.81
8533;BMP280;4304;53.876;10.662;2023-01-16T00:29:39;109988.63;;;-139.81
8533;BMP280;4304;53.876;10.662;2023-01-16T00:32:04;109885.38;;;-139.81
8533;BMP280;4304;53.876;10.662;2023-01-16T00:34:29;109972.41;;;-139.81
8533;BMP280;4304;53.876;10.662;2023-01-16T00:36:54;110087.81;;;-139.81
8533;BMP280;4304;53.876;10.662;2023-01-16T00:39:20;109954.19;;;-139.81
8533;BMP280;4304;53.876;10.662;2023-01-16T00:41:45;110014.94;;;-139.81
8533;BMP280;4304;53.876;10.662;2023-01-16T00:44:10;110002.78;;;-139.81
8533;BMP280;4304;53.876;10.662;2023-01-16T00:46:35;109980.53;;;-139.81
8533;BMP280;4304;53.876;10.662;2023-01-16T00:49:01;109901.56;;;-139.81
8533;BMP280;4304;53.876;10.662;2023-01-16T00:51:26;110083.75;;;-139.81
8533;BMP280;4304;53.876;10.662;2023-01-16T00:53:51;109929.91;;;-139.81
8533;BMP280;4304;53.876;10.662;2023-01-16T00:56:16;109966.34;;;-139.81
8533;BMP280;4304;53.876;10.662;2023-01-16T00:58:42;109990.63;;;-139.81
8533;BMP280;4304;53.876;10.662;2023-01-16T01:01:07;109964.31;;;-139.81
8533;BMP280;4304;53.876;10.662;2023-01-16T01:03:32;109946.09;;;-139.81
8533;BMP280;4304;53.876;10.662;2023-01-16T01:05:58;110014.94;;;-139.81
8533;BMP280;4304;53.876;10.662;2023-01-16T01:08:23;109964.31;;;-139.81
8533;BMP280;4304;53.876;10.662;2023-01-16T01:10:48;110059.47;;;-139.81
8533;BMP280;4304;53.876;10.662;2023-01-16T01:13:13;110035.19;;;-139.81
8533;BMP280;4304;53.876;10.662;2023-01-16T01:15:39;110027.09;;;-139.81
8533;BMP280;4304;53.876;10.662;2023-01-16T01:18:05;110035.19;;;-139.81
8533;BMP280;4304;53.876;10.662;2023-01-16T01:20:31;110083.75;;;-139.81
8533;BMP280;4304;53.876;10.662;2023-01-16T01:22:56;110051.38;;;-139.81
8533;BMP280;4304;53.876;10.662;2023-01-16T01:25:22;109933.97;;;-139.81
8533;BMP280;4304;53.876;10.662;2023-01-16T01:27:47;109883.34;;;-139.81
8533;BMP280;4304;53.876;10.662;2023-01-16T01:30:13;109921.81;;;-139.81
8533;BMP280;4304;53.876;10.662;2023-01-16T01:32:38;110002.78;;;-139.81
8533;BMP280;4304;53.876;10.662;2023-01-16T01:35:07;110144.50;;;-139.81
8533;BMP280;4304;53.876;10.662;2023-01-16T01:37:33;110000.75;;;-139.81
8533;BMP280;4304;53.876;10.662;2023-01-16T01:39:59;110136.41;;;-139.81
8533;BMP280;4304;53.876;10.662;2023-01-16T01:42:24;110170.81;;;-139.81
8533;BMP280;4304;53.876;10.662;2023-01-16T01:47:21;110300.38;;;-139.81
8533;BMP280;4304;53.876;10.662;2023-01-16T01:49:49;110286.22;;;-139.81
8533;BMP280;4304;53.876;10.662;2023-01-16T01:52:15;110274.06;;;-139.81
8533;BMP280;4304;53.876;10.662;2023-01-16T01:54:45;110314.56;;;-139.81
8533;BMP280;4304;53.876;10.662;2023-01-16T01:57:16;110419.84;;;-139.81
8533;BMP280;4304;53.876;10.662;2023-01-16T01:59:46;110383.41;;;-139.81
8533;BMP280;4304;53.876;10.662;2023-01-16T02:02:16;110363.16;;;-139.81
8533;BMP280;4304;53.876;10.662;2023-01-16T02:04:43;110357.09;;;-139.81
8533;BMP280;4304;53.876;10.662;2023-01-16T02:07:12;110373.28;;;-139.81
8533;BMP280;4304;53.876;10.662;2023-01-16T02:09:38;110401.63;;;-139.81
8533;BMP280;4304;53.876;10.662;2023-01-16T02:12:11;110444.13;;;-139.81
8533;BMP280;4304;53.876;10.662;2023-01-16T02:14:40;110652.69;;;-139.81
8533;BMP280;4304;53.876;10.662;2023-01-16T02:17:11;110387.44;;;-139.81
8533;BMP280;4304;53.876;10.662;2023-01-16T02:19:48;110498.81;;;-139.81
8533;BMP280;4304;53.876;10.662;2023-01-16T02:31:01;110160.69;;;-139.81
8533;BMP280;4304;53.876;10.662;2023-01-16T02:36:16;110124.25;;;-139.81
8533;BMP280;4304;53.876;10.662;2023-01-16T02:38:51;110219.41;;;-139.81
8533;BMP280;4304;53.876;10.662;2023-01-16T02:41:25;110162.72;;;-139.81
8533;BMP280;4304;53.876;10.662;2023-01-16T02:46:43;110245.72;;;-139.81
8533;BMP280;4304;53.876;10.662;2023-01-16T02:49:21;110395.53;;;-139.81
8533;BMP280;4304;53.876;10.662;2023-01-16T02:51:58;110298.38;;;-139.81
8533;BMP280;4304;53.876;10.662;2023-01-16T02:54:38;110415.78;;;-139.81
8533;BMP280;4304;53.876;10.662;2023-01-16T02:57:09;110326.72;;;-139.81
8533;BMP280;4304;53.876;10.662;2023-01-16T02:59:35;110351.00;;;-139.81
8533;BMP280;4304;53.876;10.662;2023-01-16T03:02:01;110306.47;;;-139.81
8533;BMP280;4304;53.876;10.662;2023-01-16T03:18:32;110476.53;;;-139.81
8533;BMP280;4304;53.876;10.662;2023-01-16T03:21:07;110421.88;;;-139.81
8533;BMP280;4304;53.876;10.662;2023-01-16T03:23:45;110421.88;;;-139.81
8533;BMP280;4304;53.876;10.662;2023-01-16T03:29:06;110533.22;;;-139.81
8533;BMP280;4304;53.876;10.662;2023-01-16T03:36:49;110460.34;;;-139.81
8533;BMP280;4304;53.876;10.662;2023-01-16T03:39:18;110419.84;;;-139.81
8533;BMP280;4304;53.876;10.662;2023-01-16T03:41:47;110448.19;;;-139.81
8533;BMP280;4304;53.876;10.662;2023-01-16T03:44:25;110632.44;;;-139.81
8533;BMP280;4304;53.876;10.662;2023-01-16T03:46:51;110381.38;;;-139.81
8533;BMP280;4304;53.876;10.662;2023-01-16T03:49:34;110480.59;;;-139.81
8533;BMP280;4304;53.876;10.662;2023-01-16T03:52:04;110460.34;;;-139.81
8533;BMP280;4304;53.876;10.662;2023-01-16T03:54:50;110553.47;;;-139.81
8533;BMP280;4304;53.876;10.662;2023-01-16T03:59:49;110531.22;;;-139.81
8533;BMP280;4304;53.876;10.662;2023-01-16T04:04:57;110549.44;;;-139.81
8533;BMP280;4304;53.876;10.662;2023-01-16T04:07:30;110480.59;;;-139.81
8533;BMP280;4304;53.876;10.662;2023-01-16T04:09:58;110417.81;;;-139.81
8533;BMP280;4304;53.876;10.662;2023-01-16T04:12:29;110442.13;;;-139.81
8533;BMP280;4304;53.876;10.662;2023-01-16T04:14:59;110363.16;;;-139.81
8533;BMP280;4304;53.876;10.662;2023-01-16T04:17:26;110193.09;;;-139.81
8533;BMP280;4304;53.876;10.662;2023-01-16T04:19:51;110235.59;;;-139.81
8533;BMP280;4304;53.876;10.662;2023-01-16T04:22:25;110193.09;;;-139.81
8533;BMP280;4304;53.876;10.662;2023-01-16T04:24:52;110097.94;;;-139.81
8533;BMP280;4304;53.876;10.662;2023-01-16T04:27:19;110124.25;;;-139.81
8533;BMP280;4304;53.876;10.662;2023-01-16T04:29:44;110144.50;;;-139.81
8533;BMP280;4304;53.876;10.662;2023-01-16T04:32:09;110083.75;;;-139.81
8533;BMP280;4304;53.876;10.662;2023-01-16T04:34:35;110114.13;;;-139.81
8533;BMP280;4304;53.876;10.662;2023-01-16T04:37:00;110087.81;;;-139.81
8533;BMP280;4304;53.876;10.662;2023-01-16T04:39:25;109960.28;;;-139.81
8533;BMP280;4304;53.876;10.662;2023-01-16T04:41:50;110043.28;;;-139.81
8533;BMP280;4304;53.876;10.662;2023-01-16T04:44:16;110018.97;;;-139.81
8533;BMP280;4304;53.876;10.662;2023-01-16T04:46:42;110087.81;;;-139.81
8533;BMP280;4304;53.876;10.662;2023-01-16T04:49:07;110073.63;;;-139.81
8533;BMP280;4304;53.876;10.662;2023-01-16T04:51:33;110116.16;;;-139.81
8533;BMP280;4304;53.876;10.662;2023-01-16T04:53:58;110075.66;;;-139.81
8533;BMP280;4304;53.876;10.662;2023-01-16T04:56:24;110118.19;;;-139.81
8533;BMP280;4304;53.876;10.662;2023-01-16T04:58:49;110245.72;;;-139.81
8533;BMP280;4304;53.876;10.662;2023-01-16T05:01:14;110095.91;;;-139.81
8533;BMP280;4304;53.876;10.662;2023-01-16T05:03:39;110132.34;;;-139.81
8533;BMP280;4304;53.876;10.662;2023-01-16T05:06:05;110298.38;;;-139.81
8533;BMP280;4304;53.876;10.662;2023-01-16T05:08:30;110124.25;;;-139.81
8533;BMP280;4304;53.876;10.662;2023-01-16T05:10:55;110144.50;;;-139.81
8533;BMP280;4304;53.876;10.662;2023-01-16T05:13:21;110164.75;;;-139.81
8533;BMP280;4304;53.876;10.662;2023-01-16T05:15:46;110322.66;;;-139.81
8533;BMP280;4304;53.876;10.662;2023-01-16T05:18:12;110146.53;;;-139.81
8533;BMP280;4304;53.876;10.662;2023-01-16T05:20:38;110176.91;;;-139.81
8533;BMP280;4304;53.876;10.662;2023-01-16T05:23:04;110180.94;;;-139.81
8533;BMP280;4304;53.876;10.662;2023-01-16T05:25:29;110162.72;;;-139.81
8533;BMP280;4304;53.876;10.662;2023-01-16T05:27:54;110189.03;;;-139.81
8533;BMP280;4304;53.876;10.662;2023-01-16T05:30:20;110114.13;;;-139.81
8533;BMP280;4304;53.876;10.662;2023-01-16T05:32:45;110128.31;;;-139.81
8533;BMP280;4304;53.876;10.662;2023-01-16T05:35:10;110071.63;;;-139.81
8533;BMP280;4304;53.876;10.662;2023-01-16T05:37:36;110063.53;;;-139.81
8533;BMP280;4304;53.876;10.662;2023-01-16T05:40:01;110112.09;;;-139.81
8533;BMP280;4304;53.876;10.662;2023-01-16T05:42:27;110063.53;;;-139.81
8533;BMP280;4304;53.876;10.662;2023-01-16T05:44:52;110091.84;;;-139.81
8533;BMP280;4304;53.876;10.662;2023-01-16T05:47:19;110051.38;;;-139.81
8533;BMP280;4304;53.876;10.662;2023-01-16T05:49:45;110075.66;;;-139.81
8533;BMP280;4304;53.876;10.662;2023-01-16T05:52:10;110039.22;;;-139.81
8533;BMP280;4304;53.876;10.662;2023-01-16T05:54:35;110073.63;;;-139.81
8533;BMP280;4304;53.876;10.662;2023-01-16T05:57:01;110016.97;;;-139.81
8533;BMP280;4304;53.876;10.662;2023-01-16T05:59:26;109980.53;;;-139.81
8533;BMP280;4304;53.876;10.662;2023-01-16T06:01:51;110021.00;;;-139.81
8533;BMP280;4304;53.876;10.662;2023-01-16T06:04:16;109956.22;;;-139.81
8533;BMP280;4304;53.876;10.662;2023-01-16T06:06:42;110031.13;;;-139.81
8533;BMP280;4304;53.876;10.662;2023-01-16T06:09:07;110014.94;;;-139.81
8533;BMP280;4304;53.876;10.662;2023-01-16T06:11:32;110018.97;;;-139.81
8533;BMP280;4304;53.876;10.662;2023-01-16T06:13:57;110047.31;;;-139.81
8533;BMP280;4304;53.876;10.662;2023-01-16T06:16:23;110280.16;;;-139.81
8533;BMP280;4304;53.876;10.662;2023-01-16T06:18:48;110328.75;;;-139.81
8533;BMP280;4304;53.876;10.662;2023-01-16T06:21:14;110004.81;;;-139.81
8533;BMP280;4304;53.876;10.662;2023-01-16T06:23:39;110021.00;;;-139.81
8533;BMP280;4304;53.876;10.662;2023-01-16T06:26:04;110261.94;;;-139.81
8533;BMP280;4304;53.876;10.662;2023-01-16T06:28:29;109915.75;;;-139.81
8533;BMP280;4304;53.876;10.662;2023-01-16T06:30:55;110000.75;;;-139.81
8533;BMP280;4304;53.876;10.662;2023-01-16T06:33:20;110053.41;;;-139.81
8533;BMP280;4304;53.876;10.662;2023-01-16T06:35:45;109935.97;;;-139.81
8533;BMP280;4304;53.876;10.662;2023-01-16T06:38:10;109877.28;;;-139.81
8533;BMP280;4304;53.876;10.662;2023-01-16T06:40:35;109984.56;;;-139.81
8533;BMP280;4304;53.876;10.662;2023-01-16T06:43:03;110027.09;;;-139.81
8533;BMP280;4304;53.876;10.662;2023-01-16T06:45:28;110075.66;;;-139.81
8533;BMP280;4304;53.876;10.662;2023-01-16T06:47:53;110093.88;;;-139.81
8533;BMP280;4304;53.876;10.662;2023-01-16T06:50:19;110008.84;;;-139.81
8533;BMP280;4304;53.876;10.662;2023-01-16T06:52:44;110067.56;;;-139.81
8533;BMP280;4304;53.876;10.662;2023-01-16T06:55:10;110095.91;;;-139.81
8533;BMP280;4304;53.876;10.662;2023-01-16T06:57:38;109976.47;;;-139.81
8533;BMP280;4304;53.876;10.662;2023-01-16T07:00:03;109966.34;;;-139.81
8533;BMP280;4304;53.876;10.662;2023-01-16T07:02:29;110002.78;;;-139.81
8533;BMP280;4304;53.876;10.662;2023-01-16T07:04:54;109980.53;;;-139.81
8533;BMP280;4304;53.876;10.662;2023-01-16T07:07:19;109944.09;;;-139.81
8533;BMP280;4304;53.876;10.662;2023-01-16T07:09:45;109885.38;;;-139.81
8533;BMP280;4304;53.876;10.662;2023-01-16T07:12:10;109944.09;;;-139.81
8533;BMP280;4304;53.876;10.662;2023-01-16T07:14:35;109956.22;;;-139.81
8533;BMP280;4304;53.876;10.662;2023-01-16T07:17:00;109861.09;;;-139.81
8533;BMP280;4304;53.876;10.662;2023-01-16T07:19:26;109814.53;;;-139.81
8533;BMP280;4304;53.876;10.662;2023-01-16T07:21:51;109869.19;;;-139.81
8533;BMP280;4304;53.876;10.662;2023-01-16T07:24:21;109830.72;;;-139.81
8533;BMP280;4304;53.876;10.662;2023-01-16T07:26:51;109881.31;;;-139.81
8533;BMP280;4304;53.876;10.662;2023-01-16T07:29:17;109723.44;;;-139.81
8533;BMP280;4304;53.876;10.662;2023-01-16T07:31:43;109684.97;;;-139.81
8533;BMP280;4304;53.876;10.662;2023-01-16T07:34:08;109840.84;;;-139.81
8533;BMP280;4304;53.876;10.662;2023-01-16T07:36:33;109790.22;;;-139.81
8533;BMP280;4304;53.876;10.662;2023-01-16T07:38:59;109808.44;;;-139.81
8533;BMP280;4304;53.876;10.662;2023-01-16T07:41:24;109784.16;;;-139.81
8533;BMP280;4304;53.876;10.662;2023-01-16T07:43:50;109715.34;;;-139.81
8533;BMP280;4304;53.876;10.662;2023-01-16T07:46:16;109751.78;;;-139.81
8533;BMP280;4304;53.876;10.662;2023-01-16T07:48:41;109834.75;;;-139.81
8533;BMP280;4304;53.876;10.662;2023-01-16T07:51:07;109770.00;;;-139.81
8533;BMP280;4304;53.876;10.662;2023-01-16T07:53:32;109674.84;;;-139.81
8533;BMP280;4304;53.876;10.662;2023-01-16T07:56:00;109755.81;;;-139.81
8533;BMP280;4304;53.876;10.662;2023-01-16T07:58:26;109583.75;;;-139.81
8533;BMP280;4304;53.876;10.662;2023-01-16T08:00:52;109755.81;;;-139.81
8533;BMP280;4304;53.876;10.662;2023-01-16T08:03:18;109770.00;;;-139.81
8533;BMP280;4304;53.876;10.662;2023-01-16T08:05:43;109840.84;;;-139.81
8533;BMP280;4304;53.876;10.662;2023-01-16T08:08:09;109877.28;;;-139.81
8533;BMP280;4304;53.876;10.662;2023-01-16T08:10:35;109763.91;;;-139.81
8533;BMP280;4304;53.876;10.662;2023-01-16T08:13:00;109759.88;;;-139.81
8533;BMP280;4304;53.876;10.662;2023-01-16T08:15:26;109796.31;;;-139.81
8533;BMP280;4304;53.876;10.662;2023-01-16T08:17:51;109927.88;;;-139.81
8533;BMP280;4304;53.876;10.662;2023-01-16T08:20:16;109917.75;;;-139.81
8533;BMP280;4304;53.876;10.662;2023-01-16T08:22:46;109836.78;;;-139.81
8533;BMP280;4304;53.876;10.662;2023-01-16T08:25:12;109998.75;;;-139.81
8533;BMP280;4304;53.876;10.662;2023-01-16T08:27:38;109893.47;;;-139.81
8533;BMP280;4304;53.876;10.662;2023-01-16T08:30:05;110176.91;;;-139.81
8533;BMP280;4304;53.876;10.662;2023-01-16T08:32:30;110156.66;;;-139.81
8533;BMP280;4304;53.876;10.662;2023-01-16T08:34:56;109933.97;;;-139.81
8533;BMP280;4304;53.876;10.662;2023-01-16T08:37:21;110059.47;;;-139.81
8533;BMP280;4304;53.876;10.662;2023-01-16T08:39:46;110191.06;;;-139.81
8533;BMP280;4304;53.876;10.662;2023-01-16T08:42:11;110091.84;;;-139.81
8533;BMP280;4304;53.876;10.662;2023-01-16T08:44:36;110276.09;;;-139.81
8533;BMP280;4304;53.876;10.662;2023-01-16T08:47:05;110527.16;;;-139.81
8533;BMP280;4304;53.876;10.662;2023-01-16T08:49:31;110452.25;;;-139.81
8533;BMP280;4304;53.876;10.662;2023-01-16T08:51:57;110444.13;;;-139.81
8533;BMP280;4304;53.876;10.662;2023-01-16T08:54:22;110444.13;;;-139.81
8533;BMP280;4304;53.876;10.662;2023-01-16T08:56:48;110395.53;;;-139.81
8533;BMP280;4304;53.876;10.662;2023-01-16T08:59:13;110450.22;;;-139.81
8533;BMP280;4304;53.876;10.662;2023-01-16T09:01:38;110213.34;;;-139.81
8533;BMP280;4304;53.876;10.662;2023-01-16T09:04:07;110340.88;;;-139.81
8533;BMP280;4304;53.876;10.662;2023-01-16T09:06:32;110525.13;;;-139.81
8533;BMP280;4304;53.876;10.662;2023-01-16T09:08:58;110223.47;;;-139.81
8533;BMP280;4304;53.876;10.662;2023-01-16T09:11:23;110018.97;;;-139.81
8533;BMP280;4304;53.876;10.662;2023-01-16T09:13:48;110073.63;;;-139.81
8533;BMP280;4304;53.876;10.662;2023-01-16T09:16:18;110282.16;;;-139.81
8533;BMP280;4304;53.876;10.662;2023-01-16T09:18:43;110567.66;;;-139.81
8533;BMP280;4304;53.876;10.662;2023-01-16T09:21:09;110282.16;;;-139.81
8533;BMP280;4304;53.876;10.662;2023-01-16T09:23:34;110300.38;;;-139.81
8533;BMP280;4304;53.876;10.662;2023-01-16T09:25:59;110616.25;;;-139.81
8533;BMP280;4304;53.876;10.662;2023-01-16T09:28:25;110681.03;;;-139.81
8533;BMP280;4304;53.876;10.662;2023-01-16T09:30:51;111003.00;;;-139.81
8533;BMP280;4304;53.876;10.662;2023-01-16T09:33:16;111325.03;;;-139.81
8533;BMP280;4304;53.876;10.662;2023-01-16T09:35:41;111237.94;;;-139.81
8533;BMP280;4304;53.876;10.662;2023-01-16T09:38:07;111061.75;;;-139.81
8533;BMP280;4304;53.876;10.662;2023-01-16T09:40:32;110982.75;;;-139.81
8533;BMP280;4304;53.876;10.662;2023-01-16T09:45:35;111219.72;;;-139.81
8533;BMP280;4304;53.876;10.662;2023-01-16T09:48:12;111104.28;;;-139.81
8533;BMP280;4304;53.876;10.662;2023-01-16T09:50:46;111047.56;;;-139.81
8533;BMP280;4304;53.876;10.662;2023-01-16T09:53:41;111144.78;;;-139.81
8533;BMP280;4304;53.876;10.662;2023-01-16T09:56:09;111158.94;;;-139.81
8533;BMP280;4304;53.876;10.662;2023-01-16T09:58:39;111213.63;;;-139.81
8533;BMP280;4304;53.876;10.662;2023-01-16T10:01:12;111570.09;;;-139.81
8533;BMP280;4304;53.876;10.662;2023-01-16T10:03:39;111304.78;;;-139.81
8533;BMP280;4304;53.876;10.662;2023-01-16T10:06:24;111082.00;;;-139.81
8533;BMP280;4304;53.876;10.662;2023-01-16T10:11:58;111037.44;;;-139.81
8533;BMP280;4304;53.876;10.662;2023-01-16T10:17:24;110729.63;;;-139.81
8533;BMP280;4304;53.876;10.662;2023-01-16T10:19:59;110504.88;;;-139.81
8533;BMP280;4304;53.876;10.662;2023-01-16T10:25:40;110486.66;;;-139.81
8533;BMP280;4304;53.876;10.662;2023-01-16T10:28:16;110484.63;;;-139.81
8533;BMP280;4304;53.876;10.662;2023-01-16T10:30:55;110407.69;;;-139.81
8533;BMP280;4304;53.876;10.662;2023-01-16T10:33:36;110369.22;;;-139.81
8533;BMP280;4304;53.876;10.662;2023-01-16T10:36:05;110318.59;;;-139.81
8533;BMP280;4304;53.876;10.662;2023-01-16T10:38:44;110375.31;;;-139.81
8533;BMP280;4304;53.876;10.662;2023-01-16T10:41:16;110298.38;;;-139.81
8533;BMP280;4304;53.876;10.662;2023-01-16T10:43:42;110172.84;;;-139.81
8533;BMP280;4304;53.876;10.662;2023-01-16T10:46:15;110340.88;;;-139.81
8533;BMP280;4304;53.876;10.662;2023-01-16T10:48:41;110383.41;;;-139.81
8533;BMP280;4304;53.876;10.662;2023-01-16T10:51:07;110571.69;;;-139.81
8533;BMP280;4304;53.876;10.662;2023-01-16T10:53:34;110383.41;;;-139.81
8533;BMP280;4304;53.876;10.662;2023-01-16T10:56:01;110185.00;;;-139.81
8533;BMP280;4304;53.876;10.662;2023-01-16T10:58:33;110213.34;;;-139.81
8533;BMP280;4304;53.876;10.662;2023-01-16T11:01:14;110197.13;;;-139.81
8533;BMP280;4304;53.876;10.662;2023-01-16T11:06:18;110274.06;;;-139.81
8533;BMP280;4304;53.876;10.662;2023-01-16T11:08:47;110130.31;;;-139.81
8533;BMP280;4304;53.876;10.662;2023-01-16T11:11:14;110162.72;;;-139.81
8533;BMP280;4304;53.876;10.662;2023-01-16T11:13:39;110500.84;;;-139.81
8533;BMP280;4304;53.876;10.662;2023-01-16T11:18:36;110379.34;;;-139.81
8533;BMP280;4304;53.876;10.662;2023-01-16T11:21:24;110460.34;;;-139.81
8533;BMP280;4304;53.876;10.662;2023-01-16T11:26:24;110561.59;;;-139.81
8533;BMP280;4304;53.876;10.662;2023-01-16T11:28:49;110553.47;;;-139.81
8533;BMP280;4304;53.876;10.662;2023-01-16T11:31:21;110517.03;;;-139.81
8533;BMP280;4304;53.876;10.662;2023-01-16T11:33:49;110683.06;;;-139.81
8533;BMP280;4304;53.876;10.662;2023-01-16T11:36:16;110632.44;;;-139.81
8533;BMP280;4304;53.876;10.662;2023-01-16T11:38:44;110589.94;;;-139.81
8533;BMP280;4304;53.876;10.662;2023-01-16T11:41:10;110565.63;;;-139.81
8533;BMP280;4304;53.876;10.662;2023-01-16T11:43:35;110768.13;;;-139.81
8533;BMP280;4304;53.876;10.662;2023-01-16T11:46:05;110484.63;;;-139.81
8533;BMP280;4304;53.876;10.662;2023-01-16T11:48:42;110687.13;;;-139.81
8533;BMP280;4304;53.876;10.662;2023-01-16T11:51:13;110950.38;;;-139.81
8533;BMP280;4304;53.876;10.662;2023-01-16T11:53:38;110832.91;;;-139.81
8533;BMP280;4304;53.876;10.662;2023-01-16T12:04:19;110816.72;;;-139.81
8533;BMP280;4304;53.876;10.662;2023-01-16T12:10:22;110794.44;;;-139.81
8533;BMP280;4304;53.876;10.662;2023-01-16T12:13:00;111173.13;;;-139.81
8533;BMP280;4304;53.876;10.662;2023-01-16T12:18:31;110668.91;;;-139.81
8533;BMP280;4304;53.876;10.662;2023-01-16T12:21:01;110646.63;;;-139.81
8533;BMP280;4304;53.876;10.662;2023-01-16T12:26:01;110755.97;;;-139.81
8533;BMP280;4304;53.876;10.662;2023-01-16T12:39:58;110859.25;;;-139.81
8533;BMP280;4304;53.876;10.662;2023-01-16T12:42:53;110786.34;;;-139.81
8533;BMP280;4304;53.876;10.662;2023-01-16T12:46:02;110701.28;;;-139.81
8533;BMP280;4304;53.876;10.662;2023-01-16T12:58:52;110711.41;;;-139.81
8533;BMP280;4304;53.876;10.662;2023-01-16T13:01:24;110751.91;;;-139.81
8533;BMP280;4304;53.876;10.662;2023-01-16T13:03:54;110573.72;;;-139.81
8533;BMP280;4304;53.876;10.662;2023-01-16T13:06:50;110624.34;;;-139.81
8533;BMP280;4304;53.876;10.662;2023-01-16T13:09:34;110626.38;;;-139.81
8533;BMP280;4304;53.876;10.662;2023-01-16T13:12:19;110792.41;;;-139.81
8533;BMP280;4304;53.876;10.662;2023-01-16T13:14:50;110478.56;;;-139.81
8533;BMP280;4304;53.876;10.662;2023-01-16T13:17:21;110407.69;;;-139.81
8533;BMP280;4304;53.876;10.662;2023-01-16T13:19:49;110565.63;;;-139.81
8533;BMP280;4304;53.876;10.662;2023-01-16T13:22:20;110466.41;;;-139.81
8533;BMP280;4304;53.876;10.662;2023-01-16T13:24:51;110355.06;;;-139.81
8533;BMP280;4304;53.876;10.662;2023-01-16T13:27:22;110581.81;;;-139.81
8533;BMP280;4304;53.876;10.662;2023-01-16T13:30:00;110460.34;;;-139.81
8533;BMP280;4304;53.876;10.662;2023-01-16T13:32:33;110367.19;;;-139.81
8533;BMP280;4304;53.876;10.662;2023-01-16T13:43:33;110263.94;;;-139.81
8533;BMP280;4304;53.876;10.662;2023-01-16T13:46:00;110318.59;;;-139.81
8533;BMP280;4304;53.876;10.662;2023-01-16T13:48:32;110351.00;;;-139.81
8533;BMP280;4304;53.876;10.662;2023-01-16T13:51:00;110193.09;;;-139.81
8533;BMP280;4304;53.876;10.662;2023-01-16T13:53:28;110314.56;;;-139.81
8533;BMP280;4304;53.876;10.662;2023-01-16T13:56:06;110140.44;;;-139.81
8533;BMP280;4304;53.876;10.662;2023-01-16T13:58:37;110298.38;;;-139.81
8533;BMP280;4304;53.876;10.662;2023-01-16T14:01:04;110021.00;;;-139.81
8533;BMP280;4304;53.876;10.662;2023-01-16T14:03:32;110245.72;;;-139.81
8533;BMP280;4304;53.876;10.662;2023-01-16T14:11:38;109907.63;;;-139.81
8533;BMP280;4304;53.876;10.662;2023-01-16T14:17:01;109899.53;;;-139.81
8533;BMP280;4304;53.876;10.662;2023-01-16T14:19:38;110037.19;;;-139.81
8533;BMP280;4304;53.876;10.662;2023-01-16T14:22:06;109994.69;;;-139.81
8533;BMP280;4304;53.876;10.662;2023-01-16T14:24:45;110178.91;;;-139.81
8533;BMP280;4304;53.876;10.662;2023-01-16T14:27:16;109935.97;;;-139.81
8533;BMP280;4304;53.876;10.662;2023-01-16T14:29:49;110051.38;;;-139.81
8533;BMP280;4304;53.876;10.662;2023-01-16T14:32:18;110089.84;;;-139.81
8533;BMP280;4304;53.876;10.662;2023-01-16T14:35:17;110209.28;;;-139.81
8533;BMP280;4304;53.876;10.662;2023-01-16T14:37:46;109911.69;;;-139.81
8533;BMP280;4304;53.876;10.662;2023-01-16T14:40:20;109909.66;;;-139.81
8533;BMP280;4304;53.876;10.662;2023-01-16T14:42:56;110189.03;;;-139.81
8533;BMP280;4304;53.876;10.662;2023-01-16T14:45:32;109792.25;;;-139.81
8533;BMP280;4304;53.876;10.662;2023-01-16T14:50:44;110138.44;;;-139.81
8533;BMP280;4304;53.876;10.662;2023-01-16T14:53:18;110201.19;;;-139.81
8533;BMP280;4304;53.876;10.662;2023-01-16T14:55:48;110300.38;;;-139.81
8533;BMP280;4304;53.876;10.662;2023-01-16T14:58:20;109919.78;;;-139.81
8533;BMP280;4304;53.876;10.662;2023-01-16T15:00:49;109820.59;;;-139.81
8533;BMP280;4304;53.876;10.662;2023-01-16T15:03:21;110140.44;;;-139.81
8533;BMP280;4304;53.876;10.662;2023-01-16T15:05:52;110209.28;;;-139.81
8533;BMP280;4304;53.876;10.662;2023-01-16T15:08:33;110193.09;;;-139.81
8533;BMP280;4304;53.876;10.662;2023-01-16T15:11:07;110255.84;;;-139.81
8533;BMP280;4304;53.876;10.662;2023-01-16T15:13:33;109962.31;;;-139.81
8533;BMP280;4304;53.876;10.662;2023-01-16T15:16:02;110081.75;;;-139.81
8533;BMP280;4304;53.876;10.662;2023-01-16T15:18:29;109919.78;;;-139.81
8533;BMP280;4304;53.876;10.662;2023-01-16T15:20:54;109885.38;;;-139.81
8533;BMP280;4304;53.876;10.662;2023-01-16T15:23:28;110122.22;;;-139.81
8533;BMP280;4304;53.876;10.662;2023-01-16T15:31:14;109970.41;;;-139.81
8533;BMP280;4304;53.876;10.662;2023-01-16T15:33:40;109877.28;;;-139.81
8533;BMP280;4304;53.876;10.662;2023-01-16T15:36:21;109968.38;;;-139.81
8533;BMP280;4304;53.876;10.662;2023-01-16T15:38:49;109982.53;;;-139.81
8533;BMP280;4304;53.876;10.662;2023-01-16T15:41:18;109873.22;;;-139.81
8533;BMP280;4304;53.876;10.662;2023-01-16T15:43:44;110010.88;;;-139.81
8533;BMP280;4304;53.876;10.662;2023-01-16T15:46:15;110067.56;;;-139.81
8533;BMP280;4304;53.876;10.662;2023-01-16T15:48:54;110071.63;;;-139.81
8533;BMP280;4304;53.876;10.662;2023-01-16T15:51:22;110083.75;;;-139.81
8533;BMP280;4304;53.876;10.662;2023-01-16T15:53:49;109917.75;;;-139.81
8533;BMP280;4304;53.876;10.662;2023-01-16T15:56:24;109990.63;;;-139.81
8533;BMP280;4304;53.876;10.662;2023-01-16T15:58:51;109824.66;;;-139.81